METAR Data
IDs: Format: Raw Decoded Include TAF

Data at: 0303 UTC 19 Oct 2021

SULS 190300Z 01004KT CAVOK 10/08 Q1023